LPMI weather

Mirandela Airfield
Mirandela, Bragança District, Portugal

Public forecast

Using degrees Celsius for public forecast. Weather courtesy of forecast.io.

Closest aviation weather report (METAR) to Mirandela Airfield

Closest report is Francisco de Sá Carneiro Airport, 66.9 nm (123.9 km) W. Retrieved 2020/01/20 02:30 UTC (0 seconds ago):

LPPR 200230Z 01007KT CAVOK 04/M01 Q1031

Closest aviation forecast (TAF) to Mirandela Airfield

Closest forecast is Francisco de Sá Carneiro Airport, 66.9 nm (123.9 km) W. Retrieved 2020-01-20 00:18 UTC (2 hours ago):

TAF LPPR 192300Z 2000/2024 05010KT CAVOK TEMPO 2000/2024 05013G23KT PROB30 TEMPO 2011/2018 05018G30KT